sensor_id;sensor_type;location;lat;lon;timestamp;pressure;altitude;pressure_sealevel;temperature;humidity
49657;BME280;71194;38.900;-77.124;2023-11-21T00:00:35;101598.45;;;12.70;31.33
49657;BME280;71194;38.900;-77.124;2023-11-21T00:03:03;101597.51;;;12.68;31.33
49657;BME280;71194;38.900;-77.124;2023-11-21T00:05:31;101592.56;;;12.66;31.47
49657;BME280;71194;38.900;-77.124;2023-11-21T00:07:59;101591.45;;;12.39;31.63
49657;BME280;71194;38.900;-77.124;2023-11-21T00:10:27;101593.53;;;12.49;31.81
49657;BME280;71194;38.900;-77.124;2023-11-21T00:12:56;101606.57;;;12.41;31.90
49657;BME280;71194;38.900;-77.124;2023-11-21T00:15:24;101611.57;;;12.43;31.91
49657;BME280;71194;38.900;-77.124;2023-11-21T00:17:52;101623.18;;;12.37;31.90
49657;BME280;71194;38.900;-77.124;2023-11-21T00:20:20;101631.13;;;12.31;31.91
49657;BME280;71194;38.900;-77.124;2023-11-21T00:22:48;101634.59;;;12.33;31.81
49657;BME280;71194;38.900;-77.124;2023-11-21T00:25:16;101631.42;;;12.36;31.62
49657;BME280;71194;38.900;-77.124;2023-11-21T00:27:44;101636.69;;;12.55;31.45
49657;BME280;71194;38.900;-77.124;2023-11-21T00:30:13;101642.51;;;12.31;31.38
49657;BME280;71194;38.900;-77.124;2023-11-21T00:32:41;101646.65;;;12.46;31.27
49657;BME280;71194;38.900;-77.124;2023-11-21T00:35:09;101652.68;;;12.16;31.22
49657;BME280;71194;38.900;-77.124;2023-11-21T00:37:37;101660.09;;;12.31;31.26
49657;BME280;71194;38.900;-77.124;2023-11-21T00:40:06;101662.85;;;12.04;31.31
49657;BME280;71194;38.900;-77.124;2023-11-21T00:42:34;101668.53;;;12.25;31.34
49657;BME280;71194;38.900;-77.124;2023-11-21T00:45:03;101674.87;;;12.01;31.38
49657;BME280;71194;38.900;-77.124;2023-11-21T00:47:30;101677.69;;;11.99;31.38
49657;BME280;71194;38.900;-77.124;2023-11-21T00:49:58;101673.37;;;11.93;31.49
49657;BME280;71194;38.900;-77.124;2023-11-21T00:52:26;101669.26;;;12.10;31.54
49657;BME280;71194;38.900;-77.124;2023-11-21T00:54:54;101675.08;;;11.83;31.41
49657;BME280;71194;38.900;-77.124;2023-11-21T00:57:22;101673.49;;;12.01;31.62
49657;BME280;71194;38.900;-77.124;2023-11-21T00:59:50;101673.29;;;11.75;31.82
49657;BME280;71194;38.900;-77.124;2023-11-21T01:02:18;101671.17;;;11.66;31.94
49657;BME280;71194;38.900;-77.124;2023-11-21T01:04:47;101673.75;;;12.08;32.21
49657;BME280;71194;38.900;-77.124;2023-11-21T01:07:14;101680.53;;;12.04;32.34
49657;BME280;71194;38.900;-77.124;2023-11-21T01:09:43;101680.91;;;11.72;32.35
49657;BME280;71194;38.900;-77.124;2023-11-21T01:12:11;101677.23;;;11.48;32.42
49657;BME280;71194;38.900;-77.124;2023-11-21T01:14:39;101664.30;;;11.68;32.32
49657;BME280;71194;38.900;-77.124;2023-11-21T01:17:07;101667.23;;;11.60;32.27
49657;BME280;71194;38.900;-77.124;2023-11-21T01:19:35;101660.07;;;11.45;32.31
49657;BME280;71194;38.900;-77.124;2023-11-21T01:22:03;101647.74;;;11.65;32.40
49657;BME280;71194;38.900;-77.124;2023-11-21T01:24:31;101637.35;;;11.58;32.42
49657;BME280;71194;38.900;-77.124;2023-11-21T01:26:59;101636.92;;;11.48;32.37
49657;BME280;71194;38.900;-77.124;2023-11-21T01:29:28;101637.66;;;11.44;32.41
49657;BME280;71194;38.900;-77.124;2023-11-21T01:31:56;101634.46;;;11.43;32.33
49657;BME280;71194;38.900;-77.124;2023-11-21T01:34:24;101640.59;;;11.38;32.42
49657;BME280;71194;38.900;-77.124;2023-11-21T01:36:52;101647.06;;;11.09;32.49
49657;BME280;71194;38.900;-77.124;2023-11-21T01:39:20;101651.78;;;11.31;32.65
49657;BME280;71194;38.900;-77.124;2023-11-21T01:41:48;101654.09;;;11.32;32.81
49657;BME280;71194;38.900;-77.124;2023-11-21T01:44:16;101651.48;;;11.42;32.88
49657;BME280;71194;38.900;-77.124;2023-11-21T01:46:44;101641.24;;;11.42;32.81
49657;BME280;71194;38.900;-77.124;2023-11-21T01:49:13;101649.53;;;11.16;32.80
49657;BME280;71194;38.900;-77.124;2023-11-21T01:51:42;101655.80;;;11.12;32.81
49657;BME280;71194;38.900;-77.124;2023-11-21T01:54:10;101650.38;;;11.05;32.90
49657;BME280;71194;38.900;-77.124;2023-11-21T01:56:38;101641.97;;;11.32;32.85
49657;BME280;71194;38.900;-77.124;2023-11-21T01:59:06;101637.71;;;11.02;32.97
49657;BME280;71194;38.900;-77.124;2023-11-21T02:01:34;101632.32;;;11.30;33.07
49657;BME280;71194;38.900;-77.124;2023-11-21T02:04:03;101629.63;;;11.25;33.07
49657;BME280;71194;38.900;-77.124;2023-11-21T02:06:31;101630.54;;;11.21;33.01
49657;BME280;71194;38.900;-77.124;2023-11-21T02:08:59;101624.46;;;11.14;33.13
49657;BME280;71194;38.900;-77.124;2023-11-21T02:11:27;101624.25;;;11.07;33.23
49657;BME280;71194;38.900;-77.124;2023-11-21T02:13:55;101617.75;;;11.02;33.12
49657;BME280;71194;38.900;-77.124;2023-11-21T02:16:23;101609.32;;;11.03;33.10
49657;BME280;71194;38.900;-77.124;2023-11-21T02:18:51;101603.08;;;10.99;33.16
49657;BME280;71194;38.900;-77.124;2023-11-21T02:21:19;101602.88;;;11.20;33.14
49657;BME280;71194;38.900;-77.124;2023-11-21T02:23:47;101605.81;;;10.92;33.10
49657;BME280;71194;38.900;-77.124;2023-11-21T02:26:16;101613.91;;;10.88;33.06
49657;BME280;71194;38.900;-77.124;2023-11-21T02:28:44;101611.76;;;10.84;33.14
49657;BME280;71194;38.900;-77.124;2023-11-21T02:31:11;101615.56;;;10.75;33.05
49657;BME280;71194;38.900;-77.124;2023-11-21T02:33:39;101614.17;;;10.94;33.08
49657;BME280;71194;38.900;-77.124;2023-11-21T02:36:06;101619.21;;;10.69;33.11
49657;BME280;71194;38.900;-77.124;2023-11-21T02:38:35;101627.72;;;11.18;33.03
49657;BME280;71194;38.900;-77.124;2023-11-21T02:41:03;101632.65;;;10.65;33.02
49657;BME280;71194;38.900;-77.124;2023-11-21T02:43:31;101634.95;;;10.63;33.04
49657;BME280;71194;38.900;-77.124;2023-11-21T02:45:59;101642.51;;;11.17;33.00
49657;BME280;71194;38.900;-77.124;2023-11-21T02:48:27;101649.43;;;10.64;32.96
49657;BME280;71194;38.900;-77.124;2023-11-21T02:50:55;101649.69;;;10.65;32.93
49657;BME280;71194;38.900;-77.124;2023-11-21T02:53:23;101655.56;;;11.14;32.87
49657;BME280;71194;38.900;-77.124;2023-11-21T02:55:51;101657.33;;;10.65;32.83
49657;BME280;71194;38.900;-77.124;2023-11-21T02:58:19;101665.27;;;10.86;32.85
49657;BME280;71194;38.900;-77.124;2023-11-21T03:00:47;101672.76;;;10.91;32.85
49657;BME280;71194;38.900;-77.124;2023-11-21T03:03:15;101674.76;;;10.79;32.74
49657;BME280;71194;38.900;-77.124;2023-11-21T03:05:44;101669.97;;;11.29;32.66
49657;BME280;71194;38.900;-77.124;2023-11-21T03:08:12;101673.28;;;10.78;32.62
49657;BME280;71194;38.900;-77.124;2023-11-21T03:10:40;101673.65;;;10.79;32.61
49657;BME280;71194;38.900;-77.124;2023-11-21T03:13:08;101672.83;;;10.75;32.59
49657;BME280;71194;38.900;-77.124;2023-11-21T03:15:36;101672.04;;;11.21;32.73
49657;BME280;71194;38.900;-77.124;2023-11-21T03:18:03;101673.37;;;10.69;32.87
49657;BME280;71194;38.900;-77.124;2023-11-21T03:20:31;101671.25;;;10.67;32.93
49657;BME280;71194;38.900;-77.124;2023-11-21T03:22:59;101670.21;;;10.66;32.87
49657;BME280;71194;38.900;-77.124;2023-11-21T03:25:28;101663.65;;;10.64;32.86
49657;BME280;71194;38.900;-77.124;2023-11-21T03:27:56;101667.57;;;10.72;32.90
49657;BME280;71194;38.900;-77.124;2023-11-21T03:30:24;101676.09;;;10.77;32.82
49657;BME280;71194;38.900;-77.124;2023-11-21T03:32:53;101670.29;;;10.43;32.88
49657;BME280;71194;38.900;-77.124;2023-11-21T03:35:20;101670.32;;;11.01;32.77
49657;BME280;71194;38.900;-77.124;2023-11-21T03:37:48;101682.71;;;10.81;32.61
49657;BME280;71194;38.900;-77.124;2023-11-21T03:40:16;101683.24;;;10.64;32.51
49657;BME280;71194;38.900;-77.124;2023-11-21T03:42:44;101681.97;;;10.61;32.44
49657;BME280;71194;38.900;-77.124;2023-11-21T03:45:13;101680.79;;;10.62;32.53
49657;BME280;71194;38.900;-77.124;2023-11-21T03:47:41;101679.93;;;10.86;32.58
49657;BME280;71194;38.900;-77.124;2023-11-21T03:50:10;101676.25;;;10.65;32.60
49657;BME280;71194;38.900;-77.124;2023-11-21T03:52:38;101676.21;;;10.64;32.60
49657;BME280;71194;38.900;-77.124;2023-11-21T03:55:06;101676.48;;;10.68;32.68
49657;BME280;71194;38.900;-77.124;2023-11-21T03:57:34;101677.22;;;10.71;32.68
49657;BME280;71194;38.900;-77.124;2023-11-21T04:00:02;101675.00;;;10.71;32.67
49657;BME280;71194;38.900;-77.124;2023-11-21T04:02:31;101678.26;;;10.64;32.69
49657;BME280;71194;38.900;-77.124;2023-11-21T04:04:59;101681.89;;;10.65;32.82
49657;BME280;71194;38.900;-77.124;2023-11-21T04:07:26;101681.40;;;10.80;32.71
49657;BME280;71194;38.900;-77.124;2023-11-21T04:09:54;101679.42;;;10.54;32.70
49657;BME280;71194;38.900;-77.124;2023-11-21T04:12:23;101678.46;;;10.74;32.68
49657;BME280;71194;38.900;-77.124;2023-11-21T04:14:51;101677.36;;;10.93;32.70
49657;BME280;71194;38.900;-77.124;2023-11-21T04:17:19;101682.23;;;10.89;32.77
49657;BME280;71194;38.900;-77.124;2023-11-21T04:19:47;101683.82;;;10.86;32.84
49657;BME280;71194;38.900;-77.124;2023-11-21T04:22:15;101686.68;;;10.58;32.85
49657;BME280;71194;38.900;-77.124;2023-11-21T04:24:43;101686.39;;;10.85;32.94
49657;BME280;71194;38.900;-77.124;2023-11-21T04:27:11;101695.61;;;10.59;32.96
49657;BME280;71194;38.900;-77.124;2023-11-21T04:29:39;101688.29;;;10.84;32.99
49657;BME280;71194;38.900;-77.124;2023-11-21T04:32:07;101693.01;;;10.83;32.98
49657;BME280;71194;38.900;-77.124;2023-11-21T04:34:35;101693.52;;;10.36;33.01
49657;BME280;71194;38.900;-77.124;2023-11-21T04:37:03;101690.78;;;10.38;33.08
49657;BME280;71194;38.900;-77.124;2023-11-21T04:39:31;101689.68;;;10.38;33.23
49657;BME280;71194;38.900;-77.124;2023-11-21T04:41:59;101687.89;;;10.58;33.38
49657;BME280;71194;38.900;-77.124;2023-11-21T04:44:27;101682.34;;;10.37;33.35
49657;BME280;71194;38.900;-77.124;2023-11-21T04:46:55;101681.09;;;10.84;33.28
49657;BME280;71194;38.900;-77.124;2023-11-21T04:49:23;101684.96;;;10.81;33.43
49657;BME280;71194;38.900;-77.124;2023-11-21T04:51:51;101691.21;;;10.32;33.53
49657;BME280;71194;38.900;-77.124;2023-11-21T04:54:19;101686.08;;;10.53;33.53
49657;BME280;71194;38.900;-77.124;2023-11-21T04:56:47;101682.68;;;10.82;33.62
49657;BME280;71194;38.900;-77.124;2023-11-21T04:59:15;101676.76;;;10.59;33.58
49657;BME280;71194;38.900;-77.124;2023-11-21T05:01:44;101675.17;;;10.43;33.67
49657;BME280;71194;38.900;-77.124;2023-11-21T05:04:12;101674.25;;;10.94;33.76
49657;BME280;71194;38.900;-77.124;2023-11-21T05:06:39;101676.02;;;10.67;33.68
49657;BME280;71194;38.900;-77.124;2023-11-21T05:09:08;101674.26;;;10.67;33.70
49657;BME280;71194;38.900;-77.124;2023-11-21T05:11:35;101673.55;;;10.55;33.85
49657;BME280;71194;38.900;-77.124;2023-11-21T05:14:03;101669.14;;;10.21;33.86
49657;BME280;71194;38.900;-77.124;2023-11-21T05:16:31;101658.52;;;10.67;33.89
49657;BME280;71194;38.900;-77.124;2023-11-21T05:18:59;101659.85;;;10.59;34.05
49657;BME280;71194;38.900;-77.124;2023-11-21T05:21:27;101672.79;;;10.52;34.11
49657;BME280;71194;38.900;-77.124;2023-11-21T05:23:55;101670.70;;;10.55;34.12
49657;BME280;71194;38.900;-77.124;2023-11-21T05:26:23;101672.19;;;10.32;34.18
49657;BME280;71194;38.900;-77.124;2023-11-21T05:28:52;101675.35;;;10.58;34.13
49657;BME280;71194;38.900;-77.124;2023-11-21T05:31:19;101682.34;;;10.33;34.08
49657;BME280;71194;38.900;-77.124;2023-11-21T05:33:48;101688.15;;;10.56;33.96
49657;BME280;71194;38.900;-77.124;2023-11-21T05:36:16;101699.80;;;10.23;34.03
49657;BME280;71194;38.900;-77.124;2023-11-21T05:38:44;101698.78;;;10.44;33.85
49657;BME280;71194;38.900;-77.124;2023-11-21T05:41:12;101705.34;;;10.45;33.96
49657;BME280;71194;38.900;-77.124;2023-11-21T05:43:40;101707.68;;;10.17;33.92
49657;BME280;71194;38.900;-77.124;2023-11-21T05:46:08;101708.80;;;10.35;33.93
49657;BME280;71194;38.900;-77.124;2023-11-21T05:48:36;101707.00;;;10.37;33.76
49657;BME280;71194;38.900;-77.124;2023-11-21T05:51:04;101708.66;;;10.18;33.53
49657;BME280;71194;38.900;-77.124;2023-11-21T05:53:32;101710.15;;;10.53;33.45
49657;BME280;71194;38.900;-77.124;2023-11-21T05:56:00;101712.01;;;10.61;33.41
49657;BME280;71194;38.900;-77.124;2023-11-21T05:58:28;101708.13;;;10.44;33.32
49657;BME280;71194;38.900;-77.124;2023-11-21T06:00:56;101706.17;;;10.52;33.31
49657;BME280;71194;38.900;-77.124;2023-11-21T06:03:24;101698.56;;;10.36;33.20
49657;BME280;71194;38.900;-77.124;2023-11-21T06:05:52;101701.47;;;10.59;33.26
49657;BME280;71194;38.900;-77.124;2023-11-21T06:08:20;101703.99;;;10.43;33.32
49657;BME280;71194;38.900;-77.124;2023-11-21T06:10:48;101704.02;;;10.48;33.24
49657;BME280;71194;38.900;-77.124;2023-11-21T06:13:17;101699.75;;;10.90;33.17
49657;BME280;71194;38.900;-77.124;2023-11-21T06:15:44;101690.27;;;10.35;33.18
49657;BME280;71194;38.900;-77.124;2023-11-21T06:18:13;101687.78;;;10.54;33.23
49657;BME280;71194;38.900;-77.124;2023-11-21T06:20:41;101690.80;;;10.23;33.37
49657;BME280;71194;38.900;-77.124;2023-11-21T06:23:09;101686.36;;;10.65;33.53
49657;BME280;71194;38.900;-77.124;2023-11-21T06:25:37;101683.40;;;10.63;33.52
49657;BME280;71194;38.900;-77.124;2023-11-21T06:28:05;101704.05;;;10.62;33.62
49657;BME280;71194;38.900;-77.124;2023-11-21T06:30:33;101718.15;;;10.73;33.62
49657;BME280;71194;38.900;-77.124;2023-11-21T06:33:02;101722.88;;;10.63;33.53
49657;BME280;71194;38.900;-77.124;2023-11-21T06:35:29;101716.48;;;11.00;33.48
49657;BME280;71194;38.900;-77.124;2023-11-21T06:37:57;101703.43;;;10.54;33.40
49657;BME280;71194;38.900;-77.124;2023-11-21T06:40:26;101701.99;;;10.73;33.34
49657;BME280;71194;38.900;-77.124;2023-11-21T06:42:53;101701.87;;;10.51;33.43
49657;BME280;71194;38.900;-77.124;2023-11-21T06:45:22;101699.79;;;10.79;33.41
49657;BME280;71194;38.900;-77.124;2023-11-21T06:47:50;101693.03;;;10.54;33.51
49657;BME280;71194;38.900;-77.124;2023-11-21T06:50:18;101702.91;;;10.77;33.48
49657;BME280;71194;38.900;-77.124;2023-11-21T06:52:45;101698.58;;;10.71;33.68
49657;BME280;71194;38.900;-77.124;2023-11-21T06:55:14;101681.01;;;10.93;33.82
49657;BME280;71194;38.900;-77.124;2023-11-21T06:57:42;101668.63;;;10.59;34.00
49657;BME280;71194;38.900;-77.124;2023-11-21T07:00:11;101659.02;;;10.81;34.23
49657;BME280;71194;38.900;-77.124;2023-11-21T07:02:39;101657.11;;;10.56;34.41
49657;BME280;71194;38.900;-77.124;2023-11-21T07:05:07;101649.98;;;10.82;34.58
49657;BME280;71194;38.900;-77.124;2023-11-21T07:07:35;101645.94;;;10.83;34.77
49657;BME280;71194;38.900;-77.124;2023-11-21T07:10:03;101652.11;;;10.80;34.91
49657;BME280;71194;38.900;-77.124;2023-11-21T07:12:31;101645.20;;;10.81;35.13
49657;BME280;71194;38.900;-77.124;2023-11-21T07:14:59;101642.95;;;10.86;35.29
49657;BME280;71194;38.900;-77.124;2023-11-21T07:17:27;101638.99;;;10.92;35.45
49657;BME280;71194;38.900;-77.124;2023-11-21T07:19:55;101638.58;;;10.41;35.57
49657;BME280;71194;38.900;-77.124;2023-11-21T07:22:22;101639.30;;;10.86;35.72
49657;BME280;71194;38.900;-77.124;2023-11-21T07:24:51;101645.10;;;10.90;35.86
49657;BME280;71194;38.900;-77.124;2023-11-21T07:27:19;101648.00;;;10.92;36.04
49657;BME280;71194;38.900;-77.124;2023-11-21T07:29:47;101650.38;;;10.50;36.03
49657;BME280;71194;38.900;-77.124;2023-11-21T07:32:15;101654.20;;;11.06;36.01
49657;BME280;71194;38.900;-77.124;2023-11-21T07:34:43;101650.19;;;10.77;36.12
49657;BME280;71194;38.900;-77.124;2023-11-21T07:37:10;101656.56;;;10.77;36.33
49657;BME280;71194;38.900;-77.124;2023-11-21T07:39:39;101668.96;;;10.73;36.37
49657;BME280;71194;38.900;-77.124;2023-11-21T07:42:07;101669.08;;;10.92;36.55
49657;BME280;71194;38.900;-77.124;2023-11-21T07:44:35;101652.82;;;10.43;36.62
49657;BME280;71194;38.900;-77.124;2023-11-21T07:47:03;101646.82;;;10.87;36.77
49657;BME280;71194;38.900;-77.124;2023-11-21T07:49:31;101641.95;;;10.90;36.87
49657;BME280;71194;38.900;-77.124;2023-11-21T07:51:59;101636.22;;;10.92;36.94
49657;BME280;71194;38.900;-77.124;2023-11-21T07:54:27;101634.69;;;10.68;37.01
49657;BME280;71194;38.900;-77.124;2023-11-21T07:56:55;101629.69;;;10.69;37.17
49657;BME280;71194;38.900;-77.124;2023-11-21T07:59:23;101618.98;;;11.05;37.27
49657;BME280;71194;38.900;-77.124;2023-11-21T08:01:51;101621.08;;;10.91;37.27
49657;BME280;71194;38.900;-77.124;2023-11-21T08:04:19;101622.43;;;11.00;37.18
49657;BME280;71194;38.900;-77.124;2023-11-21T08:06:47;101619.97;;;11.32;37.12
49657;BME280;71194;38.900;-77.124;2023-11-21T08:09:15;101619.42;;;10.79;37.20
49657;BME280;71194;38.900;-77.124;2023-11-21T08:11:43;101610.46;;;10.72;37.33
49657;BME280;71194;38.900;-77.124;2023-11-21T08:14:11;101612.44;;;10.73;37.43
49657;BME280;71194;38.900;-77.124;2023-11-21T08:16:39;101631.40;;;11.26;37.42
49657;BME280;71194;38.900;-77.124;2023-11-21T08:19:07;101646.74;;;10.83;37.47
49657;BME280;71194;38.900;-77.124;2023-11-21T08:21:36;101640.19;;;10.78;37.47
49657;BME280;71194;38.900;-77.124;2023-11-21T08:24:05;101634.64;;;10.82;37.50
49657;BME280;71194;38.900;-77.124;2023-11-21T08:26:33;101635.44;;;10.77;37.50
49657;BME280;71194;38.900;-77.124;2023-11-21T08:29:01;101633.07;;;11.39;37.39
49657;BME280;71194;38.900;-77.124;2023-11-21T08:31:29;101632.89;;;11.07;37.36
49657;BME280;71194;38.900;-77.124;2023-11-21T08:33:57;101630.98;;;11.14;37.27
49657;BME280;71194;38.900;-77.124;2023-11-21T08:36:26;101613.73;;;11.23;37.20
49657;BME280;71194;38.900;-77.124;2023-11-21T08:38:53;101610.52;;;11.23;37.20
49657;BME280;71194;38.900;-77.124;2023-11-21T08:41:21;101604.06;;;11.25;37.23
49657;BME280;71194;38.900;-77.124;2023-11-21T08:43:50;101592.39;;;11.24;37.22
49657;BME280;71194;38.900;-77.124;2023-11-21T08:46:18;101579.24;;;11.20;37.30
49657;BME280;71194;38.900;-77.124;2023-11-21T08:48:47;101569.77;;;11.11;37.39
49657;BME280;71194;38.900;-77.124;2023-11-21T08:51:15;101571.39;;;11.07;37.40
49657;BME280;71194;38.900;-77.124;2023-11-21T08:53:43;101571.91;;;11.12;37.40
49657;BME280;71194;38.900;-77.124;2023-11-21T08:56:13;101565.64;;;10.86;37.37
49657;BME280;71194;38.900;-77.124;2023-11-21T08:58:41;101569.08;;;11.18;37.27
49657;BME280;71194;38.900;-77.124;2023-11-21T09:01:09;101577.94;;;11.27;37.13
49657;BME280;71194;38.900;-77.124;2023-11-21T09:03:37;101570.45;;;11.28;37.00
49657;BME280;71194;38.900;-77.124;2023-11-21T09:06:06;101554.00;;;11.19;37.01
49657;BME280;71194;38.900;-77.124;2023-11-21T09:08:34;101549.07;;;11.23;36.76
49657;BME280;71194;38.900;-77.124;2023-11-21T09:11:02;101551.46;;;11.28;36.72
49657;BME280;71194;38.900;-77.124;2023-11-21T09:13:30;101563.50;;;11.03;36.58
49657;BME280;71194;38.900;-77.124;2023-11-21T09:15:58;101552.77;;;11.29;36.27
49657;BME280;71194;38.900;-77.124;2023-11-21T09:18:26;101551.94;;;11.23;36.16
49657;BME280;71194;38.900;-77.124;2023-11-21T09:20:54;101547.48;;;11.44;36.15
49657;BME280;71194;38.900;-77.124;2023-11-21T09:23:22;101539.80;;;11.27;36.20
49657;BME280;71194;38.900;-77.124;2023-11-21T09:25:50;101535.78;;;11.26;36.12
49657;BME280;71194;38.900;-77.124;2023-11-21T09:28:18;101525.92;;;11.26;36.05
49657;BME280;71194;38.900;-77.124;2023-11-21T09:30:46;101518.58;;;11.25;36.12
49657;BME280;71194;38.900;-77.124;2023-11-21T09:33:14;101529.11;;;11.21;36.06
49657;BME280;71194;38.900;-77.124;2023-11-21T09:35:42;101541.09;;;11.23;36.18
49657;BME280;71194;38.900;-77.124;2023-11-21T09:38:11;101542.89;;;10.98;36.29
49657;BME280;71194;38.900;-77.124;2023-11-21T09:40:39;101533.08;;;11.25;36.21
49657;BME280;71194;38.900;-77.124;2023-11-21T09:43:12;101522.99;;;11.23;36.19
49657;BME280;71194;38.900;-77.124;2023-11-21T09:45:46;101532.61;;;11.18;36.26
49657;BME280;71194;38.900;-77.124;2023-11-21T09:48:15;101531.07;;;11.02;36.38
49657;BME280;71194;38.900;-77.124;2023-11-21T09:50:43;101525.86;;;11.57;36.47
49657;BME280;71194;38.900;-77.124;2023-11-21T09:53:16;101520.95;;;10.87;36.55
49657;BME280;71194;38.900;-77.124;2023-11-21T09:55:47;101541.73;;;11.21;36.52
49657;BME280;71194;38.900;-77.124;2023-11-21T09:58:15;101544.99;;;11.28;36.44
49657;BME280;71194;38.900;-77.124;2023-11-21T10:00:44;101527.41;;;11.32;36.43
49657;BME280;71194;38.900;-77.124;2023-11-21T10:03:13;101519.48;;;11.33;36.43
49657;BME280;71194;38.900;-77.124;2023-11-21T10:05:42;101527.71;;;11.34;36.41
49657;BME280;71194;38.900;-77.124;2023-11-21T10:08:11;101524.70;;;11.35;36.41
49657;BME280;71194;38.900;-77.124;2023-11-21T10:10:43;101528.08;;;11.26;36.33
49657;BME280;71194;38.900;-77.124;2023-11-21T10:13:13;101531.59;;;11.34;36.35
49657;BME280;71194;38.900;-77.124;2023-11-21T10:15:42;101538.77;;;11.46;36.27
49657;BME280;71194;38.900;-77.124;2023-11-21T10:18:10;101538.84;;;11.24;36.18
49657;BME280;71194;38.900;-77.124;2023-11-21T10:20:38;101525.79;;;11.50;36.26
49657;BME280;71194;38.900;-77.124;2023-11-21T10:23:06;101507.89;;;11.27;36.22
49657;BME280;71194;38.900;-77.124;2023-11-21T10:25:34;101499.29;;;11.49;36.15
49657;BME280;71194;38.900;-77.124;2023-11-21T10:28:03;101496.98;;;11.45;36.17
49657;BME280;71194;38.900;-77.124;2023-11-21T10:30:33;101493.72;;;11.42;36.16
49657;BME280;71194;38.900;-77.124;2023-11-21T10:33:02;101483.41;;;11.37;36.12
49657;BME280;71194;38.900;-77.124;2023-11-21T10:35:48;101479.25;;;11.32;36.21
49657;BME280;71194;38.900;-77.124;2023-11-21T10:38:16;101468.78;;;11.32;36.27
49657;BME280;71194;38.900;-77.124;2023-11-21T10:40:44;101470.82;;;11.09;36.24
49657;BME280;71194;38.900;-77.124;2023-11-21T10:43:14;101466.46;;;11.18;36.34
49657;BME280;71194;38.900;-77.124;2023-11-21T10:45:43;101463.56;;;11.22;36.32
49657;BME280;71194;38.900;-77.124;2023-11-21T10:48:13;101476.43;;;11.12;36.55
49657;BME280;71194;38.900;-77.124;2023-11-21T10:50:41;101483.71;;;11.35;36.63
49657;BME280;71194;38.900;-77.124;2023-11-21T10:53:10;101481.86;;;11.23;36.58
49657;BME280;71194;38.900;-77.124;2023-11-21T10:55:38;101475.65;;;10.86;36.78
49657;BME280;71194;38.900;-77.124;2023-11-21T10:58:06;101455.95;;;10.92;36.82
49657;BME280;71194;38.900;-77.124;2023-11-21T11:00:35;101450.22;;;11.07;36.84
49657;BME280;71194;38.900;-77.124;2023-11-21T11:03:03;101448.42;;;11.09;36.74
49657;BME280;71194;38.900;-77.124;2023-11-21T11:05:31;101441.75;;;11.19;36.79
49657;BME280;71194;38.900;-77.124;2023-11-21T11:08:00;101445.78;;;11.22;36.83
49657;BME280;71194;38.900;-77.124;2023-11-21T11:10:32;101441.63;;;11.14;36.90
49657;BME280;71194;38.900;-77.124;2023-11-21T11:12:59;101446.96;;;11.24;36.94
49657;BME280;71194;38.900;-77.124;2023-11-21T11:15:28;101450.88;;;11.22;36.81
49657;BME280;71194;38.900;-77.124;2023-11-21T11:17:56;101443.12;;;11.14;36.95
49657;BME280;71194;38.900;-77.124;2023-11-21T11:20:29;101430.34;;;10.90;37.01
49657;BME280;71194;38.900;-77.124;2023-11-21T11:23:27;101423.82;;;11.30;36.97
49657;BME280;71194;38.900;-77.124;2023-11-21T11:26:09;101421.10;;;11.25;36.92
49657;BME280;71194;38.900;-77.124;2023-11-21T11:28:47;101426.68;;;11.37;36.92
49657;BME280;71194;38.900;-77.124;2023-11-21T11:31:27;101421.02;;;11.37;36.81
49657;BME280;71194;38.900;-77.124;2023-11-21T11:34:08;101420.43;;;11.63;36.94
49657;BME280;71194;38.900;-77.124;2023-11-21T11:36:44;101417.54;;;11.53;36.96
49657;BME280;71194;38.900;-77.124;2023-11-21T11:39:34;101413.29;;;11.52;37.05
49657;BME280;71194;38.900;-77.124;2023-11-21T11:42:05;101406.56;;;11.56;37.08
49657;BME280;71194;38.900;-77.124;2023-11-21T11:44:51;101393.02;;;11.25;37.10
49657;BME280;71194;38.900;-77.124;2023-11-21T11:47:25;101394.86;;;11.51;37.27
49657;BME280;71194;38.900;-77.124;2023-11-21T11:49:58;101399.62;;;11.52;37.41
49657;BME280;71194;38.900;-77.124;2023-11-21T11:52:36;101400.94;;;11.25;37.49
49657;BME280;71194;38.900;-77.124;2023-11-21T11:55:07;101407.50;;;11.30;37.45
49657;BME280;71194;38.900;-77.124;2023-11-21T11:57:35;101405.89;;;11.37;37.54
49657;BME280;71194;38.900;-77.124;2023-11-21T12:00:12;101396.71;;;11.66;37.50
49657;BME280;71194;38.900;-77.124;2023-11-21T12:02:40;101400.07;;;11.72;37.64
49657;BME280;71194;38.900;-77.124;2023-11-21T12:05:10;101392.96;;;11.52;37.65
49657;BME280;71194;38.900;-77.124;2023-11-21T12:07:48;101388.93;;;11.83;37.66
49657;BME280;71194;38.900;-77.124;2023-11-21T12:10:18;101385.49;;;11.96;37.57
49657;BME280;71194;38.900;-77.124;2023-11-21T12:12:48;101378.78;;;12.04;37.53
49657;BME280;71194;38.900;-77.124;2023-11-21T12:15:16;101373.32;;;11.81;37.47
49657;BME280;71194;38.900;-77.124;2023-11-21T12:17:45;101375.39;;;11.89;37.86
49657;BME280;71194;38.900;-77.124;2023-11-21T12:20:14;101367.45;;;11.56;37.78
49657;BME280;71194;38.900;-77.124;2023-11-21T12:22:43;101352.25;;;11.88;37.82
49657;BME280;71194;38.900;-77.124;2023-11-21T12:25:11;101345.30;;;11.66;37.84
49657;BME280;71194;38.900;-77.124;2023-11-21T12:27:39;101340.92;;;11.73;37.84
49657;BME280;71194;38.900;-77.124;2023-11-21T12:30:08;101335.95;;;11.62;38.02
49657;BME280;71194;38.900;-77.124;2023-11-21T12:32:36;101334.10;;;11.95;38.29
49657;BME280;71194;38.900;-77.124;2023-11-21T12:35:05;101322.50;;;11.93;38.66
49657;BME280;71194;38.900;-77.124;2023-11-21T12:37:33;101319.83;;;11.94;39.28